sensor_id;sensor_type;location;lat;lon;timestamp;temperature;humidity
10062;DHT22;5070;52.382;5.270;2023-06-14T00:01:16;26.30;51.40
10062;DHT22;5070;52.382;5.270;2023-06-14T00:03:46;26.30;51.50
10062;DHT22;5070;52.382;5.270;2023-06-14T00:06:15;26.30;51.50
10062;DHT22;5070;52.382;5.270;2023-06-14T00:08:44;26.30;51.50
10062;DHT22;5070;52.382;5.270;2023-06-14T00:11:12;26.30;51.60
10062;DHT22;5070;52.382;5.270;2023-06-14T00:13:40;26.30;51.50
10062;DHT22;5070;52.382;5.270;2023-06-14T00:16:10;26.30;51.60
10062;DHT22;5070;52.382;5.270;2023-06-14T00:18:38;26.30;51.70
10062;DHT22;5070;52.382;5.270;2023-06-14T00:21:06;26.30;51.70
10062;DHT22;5070;52.382;5.270;2023-06-14T00:23:34;26.20;51.60
10062;DHT22;5070;52.382;5.270;2023-06-14T00:26:02;26.20;51.70
10062;DHT22;5070;52.382;5.270;2023-06-14T00:28:30;26.20;52.00
10062;DHT22;5070;52.382;5.270;2023-06-14T00:30:58;26.20;52.00
10062;DHT22;5070;52.382;5.270;2023-06-14T00:33:29;26.20;52.00
10062;DHT22;5070;52.382;5.270;2023-06-14T00:35:57;26.20;52.50
10062;DHT22;5070;52.382;5.270;2023-06-14T00:38:25;26.20;52.00
10062;DHT22;5070;52.382;5.270;2023-06-14T00:40:55;26.20;52.00
10062;DHT22;5070;52.382;5.270;2023-06-14T00:43:23;26.20;51.90
10062;DHT22;5070;52.382;5.270;2023-06-14T00:45:51;26.20;51.90
10062;DHT22;5070;52.382;5.270;2023-06-14T00:48:19;26.20;51.80
10062;DHT22;5070;52.382;5.270;2023-06-14T00:50:52;26.20;51.70
10062;DHT22;5070;52.382;5.270;2023-06-14T00:53:21;26.20;51.60
10062;DHT22;5070;52.382;5.270;2023-06-14T00:55:50;26.20;51.50
10062;DHT22;5070;52.382;5.270;2023-06-14T00:58:19;26.10;51.60
10062;DHT22;5070;52.382;5.270;2023-06-14T01:00:49;26.10;51.60
10062;DHT22;5070;52.382;5.270;2023-06-14T01:03:18;26.10;51.60
10062;DHT22;5070;52.382;5.270;2023-06-14T01:05:53;26.10;51.50
10062;DHT22;5070;52.382;5.270;2023-06-14T01:08:31;26.10;51.60
10062;DHT22;5070;52.382;5.270;2023-06-14T01:11:07;26.10;51.60
10062;DHT22;5070;52.382;5.270;2023-06-14T01:13:38;26.10;51.60
10062;DHT22;5070;52.382;5.270;2023-06-14T01:16:08;26.10;51.60
10062;DHT22;5070;52.382;5.270;2023-06-14T01:18:36;26.10;51.60
10062;DHT22;5070;52.382;5.270;2023-06-14T01:21:06;26.10;51.60
10062;DHT22;5070;52.382;5.270;2023-06-14T01:23:36;26.10;51.60
10062;DHT22;5070;52.382;5.270;2023-06-14T01:26:04;26.10;51.70
10062;DHT22;5070;52.382;5.270;2023-06-14T01:28:33;26.10;51.70
10062;DHT22;5070;52.382;5.270;2023-06-14T01:31:03;26.10;51.60
10062;DHT22;5070;52.382;5.270;2023-06-14T01:33:33;26.10;51.70
10062;DHT22;5070;52.382;5.270;2023-06-14T01:36:03;26.00;51.50
10062;DHT22;5070;52.382;5.270;2023-06-14T01:38:33;26.00;51.60
10062;DHT22;5070;52.382;5.270;2023-06-14T01:41:03;26.00;51.50
10062;DHT22;5070;52.382;5.270;2023-06-14T01:43:31;26.00;51.50
10062;DHT22;5070;52.382;5.270;2023-06-14T01:46:03;26.00;51.60
10062;DHT22;5070;52.382;5.270;2023-06-14T01:48:32;26.00;51.60
10062;DHT22;5070;52.382;5.270;2023-06-14T01:51:00;26.00;51.50
10062;DHT22;5070;52.382;5.270;2023-06-14T01:53:28;26.00;51.60
10062;DHT22;5070;52.382;5.270;2023-06-14T01:55:58;26.00;51.60
10062;DHT22;5070;52.382;5.270;2023-06-14T01:58:31;26.00;51.50
10062;DHT22;5070;52.382;5.270;2023-06-14T02:00:59;26.00;51.50
10062;DHT22;5070;52.382;5.270;2023-06-14T02:03:28;26.00;51.30
10062;DHT22;5070;52.382;5.270;2023-06-14T02:05:56;26.00;51.30
10062;DHT22;5070;52.382;5.270;2023-06-14T02:08:25;26.00;51.30
10062;DHT22;5070;52.382;5.270;2023-06-14T02:10:53;25.90;51.20
10062;DHT22;5070;52.382;5.270;2023-06-14T02:13:21;25.90;51.20
10062;DHT22;5070;52.382;5.270;2023-06-14T02:15:52;25.90;51.20
10062;DHT22;5070;52.382;5.270;2023-06-14T02:18:22;25.90;51.30
10062;DHT22;5070;52.382;5.270;2023-06-14T02:20:51;25.90;51.20
10062;DHT22;5070;52.382;5.270;2023-06-14T02:23:19;25.90;51.20
10062;DHT22;5070;52.382;5.270;2023-06-14T02:25:47;25.90;51.30
10062;DHT22;5070;52.382;5.270;2023-06-14T02:28:15;25.90;51.20
10062;DHT22;5070;52.382;5.270;2023-06-14T02:30:45;25.90;51.30
10062;DHT22;5070;52.382;5.270;2023-06-14T02:33:14;25.90;51.30
10062;DHT22;5070;52.382;5.270;2023-06-14T02:35:42;25.90;51.30
10062;DHT22;5070;52.382;5.270;2023-06-14T02:38:10;25.90;51.30
10062;DHT22;5070;52.382;5.270;2023-06-14T02:40:38;25.90;51.30
10062;DHT22;5070;52.382;5.270;2023-06-14T02:43:08;25.90;51.30
10062;DHT22;5070;52.382;5.270;2023-06-14T02:45:38;25.90;51.40
10062;DHT22;5070;52.382;5.270;2023-06-14T02:48:07;25.90;51.30
10062;DHT22;5070;52.382;5.270;2023-06-14T02:50:36;25.80;51.30
10062;DHT22;5070;52.382;5.270;2023-06-14T02:53:05;25.80;51.20
10062;DHT22;5070;52.382;5.270;2023-06-14T02:55:33;25.80;51.20
10062;DHT22;5070;52.382;5.270;2023-06-14T02:58:06;25.80;51.30
10062;DHT22;5070;52.382;5.270;2023-06-14T03:00:34;25.80;51.20
10062;DHT22;5070;52.382;5.270;2023-06-14T03:03:03;25.80;51.30
10062;DHT22;5070;52.382;5.270;2023-06-14T03:05:32;25.80;51.30
10062;DHT22;5070;52.382;5.270;2023-06-14T03:08:02;25.80;51.40
10062;DHT22;5070;52.382;5.270;2023-06-14T03:10:30;25.80;51.40
10062;DHT22;5070;52.382;5.270;2023-06-14T03:12:59;25.80;51.30
10062;DHT22;5070;52.382;5.270;2023-06-14T03:15:28;25.80;51.50
10062;DHT22;5070;52.382;5.270;2023-06-14T03:17:56;25.80;51.50
10062;DHT22;5070;52.382;5.270;2023-06-14T03:20:26;25.80;51.50
10062;DHT22;5070;52.382;5.270;2023-06-14T03:23:00;25.80;51.50
10062;DHT22;5070;52.382;5.270;2023-06-14T03:25:30;25.80;51.50
10062;DHT22;5070;52.382;5.270;2023-06-14T03:28:02;25.80;51.50
10062;DHT22;5070;52.382;5.270;2023-06-14T03:30:35;25.80;51.50
10062;DHT22;5070;52.382;5.270;2023-06-14T03:33:03;25.70;51.50
10062;DHT22;5070;52.382;5.270;2023-06-14T03:35:36;25.70;51.60
10062;DHT22;5070;52.382;5.270;2023-06-14T03:38:08;25.70;51.40
10062;DHT22;5070;52.382;5.270;2023-06-14T03:40:37;25.70;51.40
10062;DHT22;5070;52.382;5.270;2023-06-14T03:43:21;25.70;51.40
10062;DHT22;5070;52.382;5.270;2023-06-14T03:45:49;25.70;51.40
10062;DHT22;5070;52.382;5.270;2023-06-14T03:48:18;25.70;51.40
10062;DHT22;5070;52.382;5.270;2023-06-14T03:50:46;25.70;51.40
10062;DHT22;5070;52.382;5.270;2023-06-14T03:53:14;25.70;51.50
10062;DHT22;5070;52.382;5.270;2023-06-14T03:55:47;25.70;51.40
10062;DHT22;5070;52.382;5.270;2023-06-14T03:58:23;25.70;51.40
10062;DHT22;5070;52.382;5.270;2023-06-14T04:00:53;25.70;51.40
10062;DHT22;5070;52.382;5.270;2023-06-14T04:03:21;25.70;51.40
10062;DHT22;5070;52.382;5.270;2023-06-14T04:05:56;25.70;51.40
10062;DHT22;5070;52.382;5.270;2023-06-14T04:08:26;25.70;51.40
10062;DHT22;5070;52.382;5.270;2023-06-14T04:10:56;25.70;51.30
10062;DHT22;5070;52.382;5.270;2023-06-14T04:13:24;25.70;51.40
10062;DHT22;5070;52.382;5.270;2023-06-14T04:15:52;25.70;51.40
10062;DHT22;5070;52.382;5.270;2023-06-14T04:18:26;25.70;51.50
10062;DHT22;5070;52.382;5.270;2023-06-14T04:20:55;25.70;51.40
10062;DHT22;5070;52.382;5.270;2023-06-14T04:23:23;25.70;51.40
10062;DHT22;5070;52.382;5.270;2023-06-14T04:25:51;25.70;51.40
10062;DHT22;5070;52.382;5.270;2023-06-14T04:28:22;25.60;51.40
10062;DHT22;5070;52.382;5.270;2023-06-14T04:30:55;25.60;51.80
10062;DHT22;5070;52.382;5.270;2023-06-14T04:33:23;25.70;51.40
10062;DHT22;5070;52.382;5.270;2023-06-14T04:35:54;25.70;51.40
10062;DHT22;5070;52.382;5.270;2023-06-14T04:38:26;25.70;51.50
10062;DHT22;5070;52.382;5.270;2023-06-14T04:40:56;25.70;51.60
10062;DHT22;5070;52.382;5.270;2023-06-14T04:43:30;25.70;51.70
10062;DHT22;5070;52.382;5.270;2023-06-14T04:46:08;25.60;51.90
10062;DHT22;5070;52.382;5.270;2023-06-14T04:48:39;25.70;51.80
10062;DHT22;5070;52.382;5.270;2023-06-14T04:51:09;25.70;51.80
10062;DHT22;5070;52.382;5.270;2023-06-14T04:53:37;25.70;51.90
10062;DHT22;5070;52.382;5.270;2023-06-14T04:56:06;25.70;52.00
10062;DHT22;5070;52.382;5.270;2023-06-14T04:58:36;25.70;51.80
10062;DHT22;5070;52.382;5.270;2023-06-14T05:01:05;25.70;52.00
10062;DHT22;5070;52.382;5.270;2023-06-14T05:03:36;25.70;52.00
10062;DHT22;5070;52.382;5.270;2023-06-14T05:06:04;25.70;51.90
10062;DHT22;5070;52.382;5.270;2023-06-14T05:08:33;25.70;51.90
10062;DHT22;5070;52.382;5.270;2023-06-14T05:11:02;25.70;51.90
10062;DHT22;5070;52.382;5.270;2023-06-14T05:13:30;25.70;52.00
10062;DHT22;5070;52.382;5.270;2023-06-14T05:16:01;25.70;52.00
10062;DHT22;5070;52.382;5.270;2023-06-14T05:18:29;25.70;52.10
10062;DHT22;5070;52.382;5.270;2023-06-14T05:20:57;25.70;52.20
10062;DHT22;5070;52.382;5.270;2023-06-14T05:23:25;25.70;52.20
10062;DHT22;5070;52.382;5.270;2023-06-14T05:25:53;25.70;53.10
10062;DHT22;5070;52.382;5.270;2023-06-14T05:28:21;25.80;52.50
10062;DHT22;5070;52.382;5.270;2023-06-14T05:30:49;25.70;52.80
10062;DHT22;5070;52.382;5.270;2023-06-14T05:33:19;25.80;53.10
10062;DHT22;5070;52.382;5.270;2023-06-14T05:35:47;25.80;53.20
10062;DHT22;5070;52.382;5.270;2023-06-14T05:38:15;25.80;53.20
10062;DHT22;5070;52.382;5.270;2023-06-14T05:40:43;25.80;53.40
10062;DHT22;5070;52.382;5.270;2023-06-14T05:43:11;25.80;54.00
10062;DHT22;5070;52.382;5.270;2023-06-14T05:45:39;25.80;54.20
10062;DHT22;5070;52.382;5.270;2023-06-14T05:48:07;25.80;54.20
10062;DHT22;5070;52.382;5.270;2023-06-14T05:50:37;25.90;54.10
10062;DHT22;5070;52.382;5.270;2023-06-14T05:53:05;25.90;54.50
10062;DHT22;5070;52.382;5.270;2023-06-14T05:55:33;25.90;54.50
10062;DHT22;5070;52.382;5.270;2023-06-14T05:58:04;25.90;54.80
10062;DHT22;5070;52.382;5.270;2023-06-14T06:00:33;25.90;54.90
10062;DHT22;5070;52.382;5.270;2023-06-14T06:03:02;25.90;54.80
10062;DHT22;5070;52.382;5.270;2023-06-14T06:05:30;25.90;54.70
10062;DHT22;5070;52.382;5.270;2023-06-14T06:08:00;25.90;55.10
10062;DHT22;5070;52.382;5.270;2023-06-14T06:10:28;25.90;55.10
10062;DHT22;5070;52.382;5.270;2023-06-14T06:12:56;25.90;55.10
10062;DHT22;5070;52.382;5.270;2023-06-14T06:15:24;25.90;55.20
10062;DHT22;5070;52.382;5.270;2023-06-14T06:17:52;25.90;55.80
10062;DHT22;5070;52.382;5.270;2023-06-14T06:20:24;26.00;55.40
10062;DHT22;5070;52.382;5.270;2023-06-14T06:22:57;26.00;55.40
10062;DHT22;5070;52.382;5.270;2023-06-14T06:25:31;25.90;55.40
10062;DHT22;5070;52.382;5.270;2023-06-14T06:27:59;26.00;55.40
10062;DHT22;5070;52.382;5.270;2023-06-14T06:30:28;26.00;55.50
10062;DHT22;5070;52.382;5.270;2023-06-14T06:32:56;26.00;55.50
10062;DHT22;5070;52.382;5.270;2023-06-14T06:35:24;26.00;55.60
10062;DHT22;5070;52.382;5.270;2023-06-14T06:37:52;26.00;55.70
10062;DHT22;5070;52.382;5.270;2023-06-14T06:40:20;25.90;55.70
10062;DHT22;5070;52.382;5.270;2023-06-14T06:42:53;26.00;55.60
10062;DHT22;5070;52.382;5.270;2023-06-14T06:45:21;26.00;55.80
10062;DHT22;5070;52.382;5.270;2023-06-14T06:47:51;26.00;55.90
10062;DHT22;5070;52.382;5.270;2023-06-14T06:50:20;26.00;55.90
10062;DHT22;5070;52.382;5.270;2023-06-14T06:52:49;26.00;55.90
10062;DHT22;5070;52.382;5.270;2023-06-14T06:55:17;26.10;56.00
10062;DHT22;5070;52.382;5.270;2023-06-14T06:57:45;26.00;55.90
10062;DHT22;5070;52.382;5.270;2023-06-14T07:00:19;26.10;56.00
10062;DHT22;5070;52.382;5.270;2023-06-14T07:02:48;26.00;55.80
10062;DHT22;5070;52.382;5.270;2023-06-14T07:05:16;26.10;55.90
10062;DHT22;5070;52.382;5.270;2023-06-14T07:07:44;26.10;56.00
10062;DHT22;5070;52.382;5.270;2023-06-14T07:10:12;26.10;55.90
10062;DHT22;5070;52.382;5.270;2023-06-14T07:12:40;26.10;56.00
10062;DHT22;5070;52.382;5.270;2023-06-14T07:15:09;26.10;56.00
10062;DHT22;5070;52.382;5.270;2023-06-14T07:17:39;26.10;55.90
10062;DHT22;5070;52.382;5.270;2023-06-14T07:20:09;26.10;56.00
10062;DHT22;5070;52.382;5.270;2023-06-14T07:22:40;26.10;55.50
10062;DHT22;5070;52.382;5.270;2023-06-14T07:25:12;26.20;55.50
10062;DHT22;5070;52.382;5.270;2023-06-14T07:27:42;26.20;55.60
10062;DHT22;5070;52.382;5.270;2023-06-14T07:30:11;26.20;55.60
10062;DHT22;5070;52.382;5.270;2023-06-14T07:32:41;26.20;55.80
10062;DHT22;5070;52.382;5.270;2023-06-14T07:35:09;26.20;55.80
10062;DHT22;5070;52.382;5.270;2023-06-14T07:37:37;26.20;55.70
10062;DHT22;5070;52.382;5.270;2023-06-14T07:40:06;26.30;55.90
10062;DHT22;5070;52.382;5.270;2023-06-14T07:42:35;26.30;56.10
10062;DHT22;5070;52.382;5.270;2023-06-14T07:45:03;26.20;55.90
10062;DHT22;5070;52.382;5.270;2023-06-14T07:47:32;26.30;56.10
10062;DHT22;5070;52.382;5.270;2023-06-14T07:50:01;26.30;56.60
10062;DHT22;5070;52.382;5.270;2023-06-14T07:52:29;26.30;56.60
10062;DHT22;5070;52.382;5.270;2023-06-14T07:54:57;26.30;56.30
10062;DHT22;5070;52.382;5.270;2023-06-14T07:57:25;26.30;56.30
10062;DHT22;5070;52.382;5.270;2023-06-14T07:59:54;26.30;56.30
10062;DHT22;5070;52.382;5.270;2023-06-14T08:02:22;26.30;56.40
10062;DHT22;5070;52.382;5.270;2023-06-14T08:04:50;26.30;56.70
10062;DHT22;5070;52.382;5.270;2023-06-14T08:07:20;26.30;56.60
10062;DHT22;5070;52.382;5.270;2023-06-14T08:09:48;26.30;56.70
10062;DHT22;5070;52.382;5.270;2023-06-14T08:12:16;26.40;56.60
10062;DHT22;5070;52.382;5.270;2023-06-14T08:14:47;26.40;56.60
10062;DHT22;5070;52.382;5.270;2023-06-14T08:17:27;26.40;56.90
10062;DHT22;5070;52.382;5.270;2023-06-14T08:19:55;26.40;57.10
10062;DHT22;5070;52.382;5.270;2023-06-14T08:22:25;26.40;57.10
10062;DHT22;5070;52.382;5.270;2023-06-14T08:24:57;26.40;56.90
10062;DHT22;5070;52.382;5.270;2023-06-14T08:27:25;26.40;56.70
10062;DHT22;5070;52.382;5.270;2023-06-14T08:29:59;26.50;57.10
10062;DHT22;5070;52.382;5.270;2023-06-14T08:32:27;26.40;57.20
10062;DHT22;5070;52.382;5.270;2023-06-14T08:35:00;26.50;57.00
10062;DHT22;5070;52.382;5.270;2023-06-14T08:37:38;26.50;57.10
10062;DHT22;5070;52.382;5.270;2023-06-14T08:40:16;26.50;57.30
10062;DHT22;5070;52.382;5.270;2023-06-14T08:42:47;26.50;57.20
10062;DHT22;5070;52.382;5.270;2023-06-14T08:45:18;26.50;57.20
10062;DHT22;5070;52.382;5.270;2023-06-14T08:47:50;26.50;57.30
10062;DHT22;5070;52.382;5.270;2023-06-14T08:50:22;26.50;57.30
10062;DHT22;5070;52.382;5.270;2023-06-14T08:52:58;26.50;57.30
10062;DHT22;5070;52.382;5.270;2023-06-14T08:55:29;26.50;57.30
10062;DHT22;5070;52.382;5.270;2023-06-14T08:58:04;26.50;57.30
10062;DHT22;5070;52.382;5.270;2023-06-14T09:00:36;26.60;57.50
10062;DHT22;5070;52.382;5.270;2023-06-14T09:03:05;26.50;57.50
10062;DHT22;5070;52.382;5.270;2023-06-14T09:05:40;26.60;57.60
10062;DHT22;5070;52.382;5.270;2023-06-14T09:08:09;26.60;57.60
10062;DHT22;5070;52.382;5.270;2023-06-14T09:10:39;26.60;57.40
10062;DHT22;5070;52.382;5.270;2023-06-14T09:13:10;26.60;57.30
10062;DHT22;5070;52.382;5.270;2023-06-14T09:15:39;26.60;57.50
10062;DHT22;5070;52.382;5.270;2023-06-14T09:18:10;26.60;57.40
10062;DHT22;5070;52.382;5.270;2023-06-14T09:20:38;26.60;57.60
10062;DHT22;5070;52.382;5.270;2023-06-14T09:23:09;26.60;57.60
10062;DHT22;5070;52.382;5.270;2023-06-14T09:25:46;26.60;57.70
10062;DHT22;5070;52.382;5.270;2023-06-14T09:28:14;26.60;58.00
10062;DHT22;5070;52.382;5.270;2023-06-14T09:30:43;26.60;57.90
10062;DHT22;5070;52.382;5.270;2023-06-14T09:33:19;26.60;57.80
10062;DHT22;5070;52.382;5.270;2023-06-14T09:35:53;26.60;57.60
10062;DHT22;5070;52.382;5.270;2023-06-14T09:38:24;26.60;57.70
10062;DHT22;5070;52.382;5.270;2023-06-14T09:41:03;26.70;58.00
10062;DHT22;5070;52.382;5.270;2023-06-14T09:43:34;26.70;58.10
10062;DHT22;5070;52.382;5.270;2023-06-14T09:46:03;26.60;58.00
10062;DHT22;5070;52.382;5.270;2023-06-14T09:48:31;26.60;58.00
10062;DHT22;5070;52.382;5.270;2023-06-14T09:50:59;26.70;58.00
10062;DHT22;5070;52.382;5.270;2023-06-14T09:53:33;26.60;57.90
10062;DHT22;5070;52.382;5.270;2023-06-14T09:56:04;26.70;57.90
10062;DHT22;5070;52.382;5.270;2023-06-14T09:58:36;26.70;58.00
10062;DHT22;5070;52.382;5.270;2023-06-14T10:01:11;26.70;57.40
10062;DHT22;5070;52.382;5.270;2023-06-14T10:03:42;26.60;57.20
10062;DHT22;5070;52.382;5.270;2023-06-14T10:06:16;26.70;57.20
10062;DHT22;5070;52.382;5.270;2023-06-14T10:08:46;26.70;57.40
10062;DHT22;5070;52.382;5.270;2023-06-14T10:11:22;26.70;57.60
10062;DHT22;5070;52.382;5.270;2023-06-14T10:13:53;26.70;57.80
10062;DHT22;5070;52.382;5.270;2023-06-14T10:16:28;26.70;57.70
10062;DHT22;5070;52.382;5.270;2023-06-14T10:19:06;26.70;57.60
10062;DHT22;5070;52.382;5.270;2023-06-14T10:21:43;26.70;58.00
10062;DHT22;5070;52.382;5.270;2023-06-14T10:24:18;26.70;58.10
10062;DHT22;5070;52.382;5.270;2023-06-14T10:30:02;26.70;58.00
10062;DHT22;5070;52.382;5.270;2023-06-14T10:32:31;26.70;55.90
10062;DHT22;5070;52.382;5.270;2023-06-14T10:35:01;26.70;56.10
10062;DHT22;5070;52.382;5.270;2023-06-14T10:37:29;26.70;56.00
10062;DHT22;5070;52.382;5.270;2023-06-14T10:40:01;26.70;56.50
10062;DHT22;5070;52.382;5.270;2023-06-14T10:42:32;26.70;56.20
10062;DHT22;5070;52.382;5.270;2023-06-14T10:45:00;26.70;56.60
10062;DHT22;5070;52.382;5.270;2023-06-14T10:47:35;26.70;56.70
10062;DHT22;5070;52.382;5.270;2023-06-14T10:50:16;26.70;57.20
10062;DHT22;5070;52.382;5.270;2023-06-14T10:52:51;26.70;57.10
10062;DHT22;5070;52.382;5.270;2023-06-14T10:55:22;26.70;56.50
10062;DHT22;5070;52.382;5.270;2023-06-14T10:57:52;26.70;56.90
10062;DHT22;5070;52.382;5.270;2023-06-14T11:00:27;26.70;56.80
10062;DHT22;5070;52.382;5.270;2023-06-14T11:03:31;26.70;57.00
10062;DHT22;5070;52.382;5.270;2023-06-14T11:06:14;26.70;56.40
10062;DHT22;5070;52.382;5.270;2023-06-14T11:09:12;26.70;55.10
10062;DHT22;5070;52.382;5.270;2023-06-14T11:11:51;26.70;55.20
10062;DHT22;5070;52.382;5.270;2023-06-14T11:14:21;26.70;55.20
10062;DHT22;5070;52.382;5.270;2023-06-14T11:16:51;26.70;55.50
10062;DHT22;5070;52.382;5.270;2023-06-14T11:19:19;26.70;55.60
10062;DHT22;5070;52.382;5.270;2023-06-14T11:21:51;26.70;54.60
10062;DHT22;5070;52.382;5.270;2023-06-14T11:24:22;26.70;54.80
10062;DHT22;5070;52.382;5.270;2023-06-14T11:26:55;26.70;54.10
10062;DHT22;5070;52.382;5.270;2023-06-14T11:29:29;26.70;53.80
10062;DHT22;5070;52.382;5.270;2023-06-14T11:31:57;26.70;53.40
10062;DHT22;5070;52.382;5.270;2023-06-14T11:34:25;26.70;53.90
10062;DHT22;5070;52.382;5.270;2023-06-14T11:36:53;26.70;53.80
10062;DHT22;5070;52.382;5.270;2023-06-14T11:39:24;26.70;53.30
10062;DHT22;5070;52.382;5.270;2023-06-14T11:41:58;26.70;53.10
10062;DHT22;5070;52.382;5.270;2023-06-14T11:44:31;26.70;53.30
10062;DHT22;5070;52.382;5.270;2023-06-14T11:47:05;26.70;53.40
10062;DHT22;5070;52.382;5.270;2023-06-14T11:49:35;26.70;52.70
10062;DHT22;5070;52.382;5.270;2023-06-14T11:52:04;26.70;53.00
10062;DHT22;5070;52.382;5.270;2023-06-14T11:54:32;26.70;52.90
10062;DHT22;5070;52.382;5.270;2023-06-14T11:57:06;26.70;53.50
10062;DHT22;5070;52.382;5.270;2023-06-14T11:59:40;26.70;53.10
10062;DHT22;5070;52.382;5.270;2023-06-14T12:02:17;26.70;53.30
10062;DHT22;5070;52.382;5.270;2023-06-14T12:04:48;26.70;52.90
10062;DHT22;5070;52.382;5.270;2023-06-14T12:07:17;26.70;52.60
10062;DHT22;5070;52.382;5.270;2023-06-14T12:10:04;26.70;51.80
10062;DHT22;5070;52.382;5.270;2023-06-14T12:12:39;26.70;51.50
10062;DHT22;5070;52.382;5.270;2023-06-14T12:15:10;26.70;51.40
10062;DHT22;5070;52.382;5.270;2023-06-14T12:17:42;26.70;51.40
10062;DHT22;5070;52.382;5.270;2023-06-14T12:20:12;26.70;51.50
10062;DHT22;5070;52.382;5.270;2023-06-14T12:23:07;26.70;51.50
10062;DHT22;5070;52.382;5.270;2023-06-14T12:25:36;26.70;51.50
10062;DHT22;5070;52.382;5.270;2023-06-14T12:28:08;26.70;51.40
10062;DHT22;5070;52.382;5.270;2023-06-14T12:30:37;26.70;51.20
10062;DHT22;5070;52.382;5.270;2023-06-14T12:33:06;26.70;51.40
10062;DHT22;5070;52.382;5.270;2023-06-14T12:35:34;26.70;51.40
10062;DHT22;5070;52.382;5.270;2023-06-14T12:38:03;26.70;51.50
10062;DHT22;5070;52.382;5.270;2023-06-14T12:40:31;26.70;51.50
10062;DHT22;5070;52.382;5.270;2023-06-14T12:42:59;26.70;51.60
10062;DHT22;5070;52.382;5.270;2023-06-14T12:45:29;26.70;51.60
10062;DHT22;5070;52.382;5.270;2023-06-14T12:47:57;26.70;51.60
10062;DHT22;5070;52.382;5.270;2023-06-14T12:50:28;26.80;51.30
10062;DHT22;5070;52.382;5.270;2023-06-14T12:52:58;26.70;51.80
10062;DHT22;5070;52.382;5.270;2023-06-14T12:55:28;26.70;51.20
10062;DHT22;5070;52.382;5.270;2023-06-14T12:57:57;26.80;51.40
10062;DHT22;5070;52.382;5.270;2023-06-14T13:00:25;26.80;51.40
10062;DHT22;5070;52.382;5.270;2023-06-14T13:02:59;26.80;51.30
10062;DHT22;5070;52.382;5.270;2023-06-14T13:05:29;26.80;51.40
10062;DHT22;5070;52.382;5.270;2023-06-14T13:07:58;26.80;51.60
10062;DHT22;5070;52.382;5.270;2023-06-14T13:10:26;26.80;51.30
10062;DHT22;5070;52.382;5.270;2023-06-14T13:13:00;26.80;51.00
10062;DHT22;5070;52.382;5.270;2023-06-14T13:15:29;26.80;51.30
10062;DHT22;5070;52.382;5.270;2023-06-14T13:17:58;26.80;51.10
10062;DHT22;5070;52.382;5.270;2023-06-14T13:20:34;26.80;50.80
10062;DHT22;5070;52.382;5.270;2023-06-14T13:23:03;26.80;50.70
10062;DHT22;5070;52.382;5.270;2023-06-14T13:25:33;26.80;50.80
10062;DHT22;5070;52.382;5.270;2023-06-14T13:28:04;26.80;51.10
10062;DHT22;5070;52.382;5.270;2023-06-14T13:30:33;26.80;50.80
10062;DHT22;5070;52.382;5.270;2023-06-14T13:33:03;26.80;50.80
10062;DHT22;5070;52.382;5.270;2023-06-14T13:35:31;26.90;50.90
10062;DHT22;5070;52.382;5.270;2023-06-14T13:37:59;26.90;50.50
10062;DHT22;5070;52.382;5.270;2023-06-14T13:40:27;26.90;50.50
10062;DHT22;5070;52.382;5.270;2023-06-14T13:42:55;26.90;50.20
10062;DHT22;5070;52.382;5.270;2023-06-14T13:45:23;26.90;50.10
10062;DHT22;5070;52.382;5.270;2023-06-14T13:47:51;26.90;50.50
10062;DHT22;5070;52.382;5.270;2023-06-14T13:50:21;26.90;50.10
10062;DHT22;5070;52.382;5.270;2023-06-14T13:52:49;26.90;50.20
10062;DHT22;5070;52.382;5.270;2023-06-14T13:55:18;26.90;50.20
10062;DHT22;5070;52.382;5.270;2023-06-14T13:57:48;26.90;50.70
10062;DHT22;5070;52.382;5.270;2023-06-14T14:00:23;26.90;50.30
10062;DHT22;5070;52.382;5.270;2023-06-14T14:02:51;26.90;50.20
10062;DHT22;5070;52.382;5.270;2023-06-14T14:05:24;26.90;49.90
10062;DHT22;5070;52.382;5.270;2023-06-14T14:07:55;26.90;50.30
10062;DHT22;5070;52.382;5.270;2023-06-14T14:10:27;26.90;50.30
10062;DHT22;5070;52.382;5.270;2023-06-14T14:13:00;26.90;50.50
10062;DHT22;5070;52.382;5.270;2023-06-14T14:15:29;26.90;50.80
10062;DHT22;5070;52.382;5.270;2023-06-14T14:18:01;26.90;50.50
10062;DHT22;5070;52.382;5.270;2023-06-14T14:20:31;26.90;50.90
10062;DHT22;5070;52.382;5.270;2023-06-14T14:22:59;26.90;50.60
10062;DHT22;5070;52.382;5.270;2023-06-14T14:25:31;26.90;50.70
10062;DHT22;5070;52.382;5.270;2023-06-14T14:28:02;26.90;51.20
10062;DHT22;5070;52.382;5.270;2023-06-14T14:30:30;26.90;51.10
10062;DHT22;5070;52.382;5.270;2023-06-14T14:32:59;27.00;51.70
10062;DHT22;5070;52.382;5.270;2023-06-14T14:35:27;26.90;51.20
10062;DHT22;5070;52.382;5.270;2023-06-14T14:37:58;26.90;51.20
10062;DHT22;5070;52.382;5.270;2023-06-14T14:40:27;27.00;51.10
10062;DHT22;5070;52.382;5.270;2023-06-14T14:42:55;27.00;50.70
10062;DHT22;5070;52.382;5.270;2023-06-14T14:45:23;27.00;51.00
10062;DHT22;5070;52.382;5.270;2023-06-14T14:47:51;27.00;51.10
10062;DHT22;5070;52.382;5.270;2023-06-14T14:50:22;27.00;50.90
10062;DHT22;5070;52.382;5.270;2023-06-14T14:52:52;27.00;51.10
10062;DHT22;5070;52.382;5.270;2023-06-14T14:55:22;27.00;50.80
10062;DHT22;5070;52.382;5.270;2023-06-14T14:57:52;27.00;50.40
10062;DHT22;5070;52.382;5.270;2023-06-14T15:00:27;27.00;50.70
10062;DHT22;5070;52.382;5.270;2023-06-14T15:02:57;27.00;50.90
10062;DHT22;5070;52.382;5.270;2023-06-14T15:05:25;27.00;51.10
10062;DHT22;5070;52.382;5.270;2023-06-14T15:07:55;27.10;50.70
10062;DHT22;5070;52.382;5.270;2023-06-14T15:10:27;27.10;51.20
10062;DHT22;5070;52.382;5.270;2023-06-14T15:12:58;27.10;51.00
10062;DHT22;5070;52.382;5.270;2023-06-14T15:15:27;27.10;50.90
10062;DHT22;5070;52.382;5.270;2023-06-14T15:17:55;27.10;51.70
10062;DHT22;5070;52.382;5.270;2023-06-14T15:20:26;27.10;51.50
10062;DHT22;5070;52.382;5.270;2023-06-14T15:22:54;27.10;51.80
10062;DHT22;5070;52.382;5.270;2023-06-14T15:25:27;27.10;51.40
10062;DHT22;5070;52.382;5.270;2023-06-14T15:27:56;27.10;51.50
10062;DHT22;5070;52.382;5.270;2023-06-14T15:30:24;27.10;51.10
10062;DHT22;5070;52.382;5.270;2023-06-14T15:32:52;27.10;51.10
10062;DHT22;5070;52.382;5.270;2023-06-14T15:35:23;27.10;51.40
10062;DHT22;5070;52.382;5.270;2023-06-14T15:37:51;27.10;51.30
10062;DHT22;5070;52.382;5.270;2023-06-14T15:40:19;27.10;51.00
10062;DHT22;5070;52.382;5.270;2023-06-14T15:42:48;27.10;51.20
10062;DHT22;5070;52.382;5.270;2023-06-14T15:45:19;27.20;51.30
10062;DHT22;5070;52.382;5.270;2023-06-14T15:47:47;27.20;51.00
10062;DHT22;5070;52.382;5.270;2023-06-14T15:50:15;27.20;51.60
10062;DHT22;5070;52.382;5.270;2023-06-14T15:52:44;27.20;51.30
10062;DHT22;5070;52.382;5.270;2023-06-14T15:55:13;27.20;51.00
10062;DHT22;5070;52.382;5.270;2023-06-14T15:57:41;27.20;51.40
10062;DHT22;5070;52.382;5.270;2023-06-14T16:00:12;27.20;51.30
10062;DHT22;5070;52.382;5.270;2023-06-14T16:02:42;27.20;51.50
10062;DHT22;5070;52.382;5.270;2023-06-14T16:05:11;27.20;51.20
10062;DHT22;5070;52.382;5.270;2023-06-14T16:07:39;27.20;51.00